createdAt,value
2022-08-23T00:02:28.116Z,54.62
2022-08-23T00:05:08.333Z,54.85
2022-08-23T00:07:38.625Z,54.65
2022-08-23T00:10:09.360Z,54.69
2022-08-23T00:12:37.892Z,54.72
2022-08-23T00:15:07.666Z,54.98
2022-08-23T00:17:39.234Z,55.03
2022-08-23T00:20:09.669Z,55.29
2022-08-23T00:22:39.053Z,55.21
2022-08-23T00:25:09.090Z,55.34
2022-08-23T00:27:37.165Z,55.31
2022-08-23T00:30:09.432Z,55.46
2022-08-23T00:32:40.217Z,55.60
2022-08-23T00:35:11.495Z,55.35
2022-08-23T00:37:40.084Z,55.38
2022-08-23T00:40:12.175Z,55.49
2022-08-23T00:43:03.489Z,55.41
2022-08-23T00:46:00.920Z,55.67
2022-08-23T00:48:31.124Z,55.75
2022-08-23T00:51:04.555Z,55.71
2022-08-23T00:53:35.433Z,56.04
2022-08-23T00:56:07.511Z,55.87
2022-08-23T00:58:36.398Z,55.83
2022-08-23T01:01:05.757Z,55.96
2022-08-23T01:03:42.076Z,56.03
2022-08-23T01:06:15.107Z,56.11
2022-08-23T01:08:47.444Z,56.28
2022-08-23T01:11:37.510Z,56.13
2022-08-23T01:14:11.845Z,56.15
2022-08-23T01:16:45.670Z,56.30
2022-08-23T01:19:24.286Z,56.11
2022-08-23T01:22:09.491Z,55.98
2022-08-23T01:25:06.824Z,56.09
2022-08-23T01:27:29.877Z,56.29
2022-08-23T01:30:00.599Z,56.32
2022-08-23T01:32:29.958Z,56.58
2022-08-23T01:34:57.994Z,56.54
2022-08-23T01:37:26.835Z,56.47
2022-08-23T01:39:56.606Z,56.43
2022-08-23T01:42:24.694Z,56.59
2022-08-23T01:44:53.075Z,56.74
2022-08-23T01:47:21.167Z,56.80
2022-08-23T01:49:49.521Z,56.95
2022-08-23T01:52:18.016Z,56.68
2022-08-23T01:54:46.653Z,57.09
2022-08-23T01:57:16.662Z,57.16
2022-08-23T01:59:45.176Z,56.90
2022-08-23T02:02:13.474Z,57.20
2022-08-23T02:04:41.840Z,57.23
2022-08-23T02:07:09.898Z,57.30
2022-08-23T02:09:38.349Z,57.26
2022-08-23T02:12:06.976Z,57.35
2022-08-23T02:14:42.428Z,57.53
2022-08-23T02:17:10.711Z,57.33
2022-08-23T02:19:39.683Z,57.63
2022-08-23T02:22:09.565Z,57.68
2022-08-23T02:24:42.145Z,57.54
2022-08-23T02:27:10.521Z,57.86
2022-08-23T02:29:40.250Z,57.66
2022-08-23T02:32:09.667Z,58.07
2022-08-23T02:34:38.583Z,57.66
2022-08-23T02:37:07.798Z,57.89
2022-08-23T02:39:36.641Z,57.77
2022-08-23T02:42:07.564Z,57.72
2022-08-23T02:44:35.834Z,58.05
2022-08-23T02:47:07.893Z,57.94
2022-08-23T02:49:37.343Z,57.74
2022-08-23T02:52:06.833Z,57.71
2022-08-23T02:54:35.625Z,57.39
2022-08-23T02:57:03.612Z,57.78
2022-08-23T02:59:31.987Z,57.80
2022-08-23T03:01:59.956Z,57.30
2022-08-23T03:04:29.622Z,57.97
2022-08-23T03:06:58.111Z,57.94
2022-08-23T03:09:26.433Z,57.97
2022-08-23T03:11:55.306Z,57.49
2022-08-23T03:14:24.867Z,57.74
2022-08-23T03:16:53.531Z,57.94
2022-08-23T03:19:26.859Z,57.92
2022-08-23T03:21:56.633Z,57.67
2022-08-23T03:24:25.150Z,57.83
2022-08-23T03:26:53.449Z,57.63
2022-08-23T03:29:22.036Z,57.78
2022-08-23T03:31:52.027Z,57.75
2022-08-23T03:34:22.317Z,57.98
2022-08-23T03:36:50.977Z,57.74
2022-08-23T03:39:20.849Z,57.96
2022-08-23T03:41:49.623Z,58.06
2022-08-23T03:44:18.358Z,57.98
2022-08-23T03:46:46.729Z,58.10
2022-08-23T03:49:15.238Z,57.80
2022-08-23T03:51:43.370Z,58.18
2022-08-23T03:54:11.880Z,58.06
2022-08-23T03:56:54.923Z,58.11
2022-08-23T03:59:24.282Z,58.20
2022-08-23T04:01:53.345Z,58.63
2022-08-23T04:04:21.881Z,58.52
2022-08-23T04:06:50.203Z,58.11
2022-08-23T04:09:19.097Z,58.42
2022-08-23T04:11:48.852Z,58.49
2022-08-23T04:14:17.249Z,58.29
2022-08-23T04:16:45.688Z,58.21
2022-08-23T04:19:16.350Z,57.89
2022-08-23T04:21:50.190Z,57.88
2022-08-23T04:24:19.917Z,58.01
2022-08-23T04:26:49.802Z,57.89
2022-08-23T04:29:23.060Z,58.30
2022-08-23T04:32:05.219Z,58.29
2022-08-23T04:34:34.280Z,58.26
2022-08-23T04:37:02.157Z,58.34
2022-08-23T04:39:51.804Z,58.45
2022-08-23T04:42:23.272Z,58.17
2022-08-23T04:44:51.534Z,57.92
2022-08-23T04:47:20.360Z,58.24
2022-08-23T04:49:48.330Z,57.98
2022-08-23T04:52:19.350Z,58.03
2022-08-23T04:54:47.860Z,58.22
2022-08-23T04:57:16.465Z,58.47
2022-08-23T04:59:45.944Z,58.30
2022-08-23T05:02:14.490Z,58.49
2022-08-23T05:04:42.479Z,58.45
2022-08-23T05:07:11.100Z,58.16
2022-08-23T05:09:39.212Z,58.45
2022-08-23T05:12:07.420Z,58.47
2022-08-23T05:14:36.185Z,58.37
2022-08-23T05:17:05.530Z,58.39
2022-08-23T05:19:33.418Z,58.70
2022-08-23T05:22:02.716Z,58.42
2022-08-23T05:24:30.791Z,58.18
2022-08-23T05:26:58.942Z,58.50
2022-08-23T05:29:26.849Z,58.41
2022-08-23T05:31:57.399Z,58.76
2022-08-23T05:34:26.657Z,58.57
2022-08-23T05:36:55.640Z,58.83
2022-08-23T05:39:32.962Z,58.77
2022-08-23T05:42:05.068Z,58.86
2022-08-23T05:44:36.640Z,58.98
2022-08-23T05:47:10.654Z,58.82
2022-08-23T05:49:41.278Z,59.18
2022-08-23T05:52:11.692Z,59.17
2022-08-23T05:54:39.620Z,59.14
2022-08-23T05:57:07.819Z,59.36
2022-08-23T05:59:35.811Z,59.28
2022-08-23T06:02:03.877Z,59.52
2022-08-23T06:04:31.952Z,60.10
2022-08-23T06:07:01.104Z,59.89
2022-08-23T06:09:29.177Z,59.83
2022-08-23T06:11:58.689Z,59.85
2022-08-23T06:14:26.956Z,59.61
2022-08-23T06:16:56.279Z,59.72
2022-08-23T06:19:25.301Z,59.87
2022-08-23T06:21:53.872Z,59.89
2022-08-23T06:24:23.280Z,60.10
2022-08-23T06:26:51.470Z,60.18
2022-08-23T06:29:21.711Z,60.29
2022-08-23T06:31:52.099Z,60.02
2022-08-23T06:34:23.054Z,59.97
2022-08-23T06:36:52.925Z,60.09
2022-08-23T06:39:24.394Z,60.11
2022-08-23T06:41:52.804Z,59.92
2022-08-23T06:44:21.320Z,59.75
2022-08-23T06:46:49.613Z,59.55
2022-08-23T06:49:18.197Z,59.69
2022-08-23T06:51:49.704Z,58.92
2022-08-23T06:54:20.575Z,58.33
2022-08-23T06:56:50.909Z,58.83
2022-08-23T06:59:19.919Z,57.96
2022-08-23T07:01:51.422Z,57.33
2022-08-23T07:04:21.985Z,57.25
2022-08-23T07:06:49.849Z,57.28
2022-08-23T07:09:18.648Z,57.00
2022-08-23T07:11:46.979Z,56.64
2022-08-23T07:14:18.988Z,56.22
2022-08-23T07:16:50.346Z,56.16
2022-08-23T07:19:20.302Z,56.26
2022-08-23T07:21:48.727Z,55.35
2022-08-23T07:24:18.311Z,55.88
2022-08-23T07:26:47.556Z,55.14
2022-08-23T07:29:18.084Z,55.89
2022-08-23T07:31:49.047Z,55.33
2022-08-23T07:34:16.950Z,55.00
2022-08-23T07:36:47.092Z,54.82
2022-08-23T07:39:16.207Z,54.73
2022-08-23T07:41:44.709Z,53.60
2022-08-23T07:44:13.744Z,53.97
2022-08-23T07:46:48.778Z,54.13
2022-08-23T07:49:17.299Z,53.53
2022-08-23T07:51:48.308Z,53.14
2022-08-23T07:54:18.112Z,53.25
2022-08-23T07:56:46.501Z,53.31
2022-08-23T07:59:15.025Z,52.72
2022-08-23T08:01:44.459Z,51.99
2022-08-23T08:04:13.744Z,51.27
2022-08-23T08:06:44.022Z,51.59
2022-08-23T08:09:12.804Z,51.45
2022-08-23T08:11:44.795Z,50.52
2022-08-23T08:14:13.281Z,50.35
2022-08-23T08:16:44.037Z,50.29
2022-08-23T08:19:16.961Z,49.65
2022-08-23T08:21:48.311Z,49.57
2022-08-23T08:24:18.616Z,49.52
2022-08-23T08:26:47.713Z,48.77
2022-08-23T08:29:16.102Z,48.97
2022-08-23T08:31:46.884Z,49.14
2022-08-23T08:34:16.080Z,47.80
2022-08-23T08:36:45.994Z,47.41
2022-08-23T08:39:18.677Z,47.40
2022-08-23T08:42:04.957Z,47.57
2022-08-23T08:44:40.801Z,47.12
2022-08-23T08:47:14.330Z,46.92
2022-08-23T08:49:47.751Z,46.88
2022-08-23T08:52:19.980Z,45.97
2022-08-23T08:54:50.203Z,47.06
2022-08-23T08:57:27.538Z,46.59
2022-08-23T09:00:00.588Z,47.02
2022-08-23T09:02:33.688Z,47.10
2022-08-23T09:05:08.696Z,46.97
2022-08-23T09:07:45.336Z,47.10
2022-08-23T09:10:48.375Z,47.49
2022-08-23T09:13:46.329Z,47.14
2022-08-23T09:16:24.731Z,46.80
2022-08-23T09:18:54.838Z,47.39
2022-08-23T09:21:25.133Z,47.10
2022-08-23T09:23:57.104Z,47.68
2022-08-23T09:26:31.222Z,47.87
2022-08-23T09:29:03.959Z,46.96
2022-08-23T09:31:43.625Z,47.50
2022-08-23T09:34:17.214Z,47.75
2022-08-23T09:36:46.619Z,47.49
2022-08-23T09:39:30.822Z,47.12
2022-08-23T09:41:59.923Z,46.96
2022-08-23T09:44:39.608Z,46.95
2022-08-23T09:47:12.890Z,47.02
2022-08-23T09:49:43.568Z,47.40
2022-08-23T09:52:22.723Z,46.75
2022-08-23T09:55:01.315Z,46.97
2022-08-23T09:57:32.285Z,46.32
2022-08-23T10:00:03.329Z,46.87
2022-08-23T10:02:34.733Z,46.63
2022-08-23T10:05:06.320Z,46.79
2022-08-23T10:07:42.460Z,46.63
2022-08-23T10:10:26.641Z,47.37
2022-08-23T10:12:56.102Z,46.78
2022-08-23T10:15:36.212Z,46.48
2022-08-23T10:18:09.546Z,46.05
2022-08-23T10:20:45.857Z,46.47
2022-08-23T10:23:34.008Z,46.41
2022-08-23T10:26:03.033Z,45.75
2022-08-23T10:29:01.213Z,46.43
2022-08-23T10:31:43.879Z,46.30
2022-08-23T10:34:29.960Z,46.21
2022-08-23T10:37:14.375Z,45.64
2022-08-23T10:39:49.736Z,45.18
2022-08-23T10:42:29.603Z,45.00
2022-08-23T10:45:04.271Z,44.56
2022-08-23T10:47:38.310Z,45.08
2022-08-23T10:50:09.492Z,45.08
2022-08-23T10:52:41.786Z,44.90
2022-08-23T10:55:34.819Z,45.88
2022-08-23T10:58:05.374Z,46.16
2022-08-23T11:00:34.422Z,45.72
2022-08-23T11:03:13.493Z,45.58
2022-08-23T11:05:43.055Z,45.23
2022-08-23T11:08:14.074Z,43.96
2022-08-23T11:10:56.321Z,45.48
2022-08-23T11:13:28.126Z,44.91
2022-08-23T11:15:59.638Z,44.51
2022-08-23T11:18:41.300Z,44.29
2022-08-23T11:21:25.555Z,44.05
2022-08-23T11:23:56.007Z,43.07
2022-08-23T11:27:06.932Z,44.33
2022-08-23T11:29:39.633Z,43.65
2022-08-23T11:32:31.258Z,43.84
2022-08-23T11:35:19.527Z,42.06
2022-08-23T11:38:03.829Z,41.63
2022-08-23T11:40:56.529Z,42.06
2022-08-23T11:43:29.219Z,42.56
2022-08-23T11:46:18.295Z,42.71
2022-08-23T11:48:50.821Z,43.05
2022-08-23T11:51:34.000Z,42.48
2022-08-23T11:54:33.069Z,43.11
2022-08-23T11:57:15.709Z,41.41
2022-08-23T12:00:02.642Z,41.88
2022-08-23T12:02:49.369Z,41.55
2022-08-23T12:05:42.459Z,40.95
2022-08-23T12:08:31.471Z,41.17
2022-08-23T12:11:05.199Z,41.29
2022-08-23T12:13:47.685Z,41.13
2022-08-23T12:16:30.888Z,40.63
2022-08-23T12:19:04.426Z,41.40
2022-08-23T12:21:35.921Z,40.75
2022-08-23T12:24:16.568Z,40.97
2022-08-23T12:26:52.951Z,41.27
2022-08-23T12:29:29.439Z,41.47
2022-08-23T12:32:06.858Z,40.73
2022-08-23T12:34:45.912Z,40.58
2022-08-23T12:37:21.245Z,40.84
2022-08-23T12:39:52.789Z,40.76
2022-08-23T12:42:27.269Z,40.60
2022-08-23T12:45:05.681Z,41.02
2022-08-23T12:47:34.324Z,40.98
2022-08-23T12:50:09.396Z,41.48
2022-08-23T12:52:38.221Z,41.31
2022-08-23T12:55:15.310Z,41.06
2022-08-23T12:57:45.180Z,41.04
2022-08-23T13:00:21.459Z,40.82
2022-08-23T13:02:54.654Z,40.30
2022-08-23T13:05:33.364Z,40.19
2022-08-23T13:08:04.133Z,40.58
2022-08-23T13:10:33.122Z,40.14
2022-08-23T13:13:01.981Z,40.42
2022-08-23T13:15:52.689Z,40.67
2022-08-23T13:18:42.105Z,40.64
2022-08-23T13:21:27.294Z,40.69
2022-08-23T13:23:56.728Z,40.71
2022-08-23T13:26:30.892Z,41.11
2022-08-23T13:29:08.184Z,40.10
2022-08-23T13:32:03.484Z,40.46
2022-08-23T13:34:39.808Z,39.78
2022-08-23T13:37:24.513Z,39.76
2022-08-23T13:39:55.905Z,39.71
2022-08-23T13:42:35.096Z,40.01
2022-08-23T13:45:10.183Z,40.19
2022-08-23T13:47:38.215Z,40.52
2022-08-23T13:50:11.484Z,39.60
2022-08-23T13:53:03.090Z,40.50
2022-08-23T13:55:30.993Z,40.24
2022-08-23T13:58:00.062Z,40.30
2022-08-23T14:00:27.917Z,39.88
2022-08-23T14:02:55.897Z,40.07
2022-08-23T14:05:24.965Z,39.79
2022-08-23T14:07:54.210Z,39.24
2022-08-23T14:10:23.916Z,39.48
2022-08-23T14:12:54.601Z,39.15
2022-08-23T14:15:54.519Z,40.04
2022-08-23T14:18:12.524Z,39.77
2022-08-23T14:20:45.846Z,39.63
2022-08-23T14:23:15.628Z,39.50
2022-08-23T14:25:44.214Z,40.17
2022-08-23T14:28:12.019Z,39.95
2022-08-23T14:30:39.984Z,40.27
2022-08-23T14:33:07.993Z,40.17
2022-08-23T14:35:35.785Z,40.16
2022-08-23T14:38:13.443Z,40.56
2022-08-23T14:40:52.914Z,40.07
2022-08-23T14:43:22.343Z,40.26
2022-08-23T14:45:53.494Z,40.41
2022-08-23T14:48:23.403Z,40.13
2022-08-23T14:50:51.598Z,39.59
2022-08-23T14:53:22.289Z,39.89
2022-08-23T14:56:12.257Z,39.65
2022-08-23T14:58:41.943Z,39.60
2022-08-23T15:01:10.843Z,39.97
2022-08-23T15:03:41.757Z,39.93
2022-08-23T15:06:09.857Z,40.30
2022-08-23T15:08:37.948Z,40.07
2022-08-23T15:14:00.172Z,39.15
2022-08-23T15:16:28.361Z,39.71
2022-08-23T15:18:57.323Z,39.16
2022-08-23T15:21:25.395Z,39.16
2022-08-23T15:23:53.760Z,39.14
2022-08-23T15:26:26.214Z,39.65
2022-08-23T15:28:54.156Z,39.46
2022-08-23T15:31:22.433Z,39.55
2022-08-23T15:33:50.337Z,39.81
2022-08-23T15:36:18.728Z,39.61
2022-08-23T15:38:48.812Z,39.32
2022-08-23T15:41:18.475Z,39.40
2022-08-23T15:43:48.231Z,39.53
2022-08-23T15:46:19.663Z,39.47
2022-08-23T15:48:51.498Z,39.71
2022-08-23T15:51:19.895Z,39.50
2022-08-23T15:53:48.254Z,38.82
2022-08-23T15:56:19.769Z,39.27
2022-08-23T15:58:49.224Z,39.06
2022-08-23T16:01:21.742Z,39.05
2022-08-23T16:03:52.692Z,39.02
2022-08-23T16:06:20.964Z,39.29
2022-08-23T16:08:52.334Z,39.08
2022-08-23T16:11:21.233Z,39.11
2022-08-23T16:13:55.176Z,38.94
2022-08-23T16:16:26.966Z,39.12
2022-08-23T16:18:55.232Z,39.06
2022-08-23T16:21:25.231Z,39.42
2022-08-23T16:23:53.240Z,39.01
2022-08-23T16:26:28.845Z,39.61
2022-08-23T16:29:08.814Z,38.94
2022-08-23T16:31:39.380Z,39.31
2022-08-23T16:34:09.535Z,39.50
2022-08-23T16:36:37.911Z,39.14
2022-08-23T16:39:05.935Z,39.37
2022-08-23T16:41:33.880Z,39.24
2022-08-23T16:44:01.983Z,39.32
2022-08-23T16:46:31.274Z,39.80
2022-08-23T16:48:59.311Z,39.69
2022-08-23T16:51:27.429Z,39.59
2022-08-23T16:54:02.483Z,39.90
2022-08-23T16:56:31.602Z,39.69
2022-08-23T16:58:59.768Z,39.71
2022-08-23T17:01:28.151Z,39.78
2022-08-23T17:03:57.548Z,39.71
2022-08-23T17:06:25.594Z,39.92
2022-08-23T17:08:53.466Z,39.48
2022-08-23T17:11:21.517Z,40.09
2022-08-23T17:13:50.205Z,40.72
2022-08-23T17:16:19.176Z,41.47
2022-08-23T17:18:47.339Z,40.61
2022-08-23T17:21:20.050Z,40.36
2022-08-23T17:23:47.996Z,40.30
2022-08-23T17:26:16.286Z,40.76
2022-08-23T17:28:44.258Z,39.79
2022-08-23T17:31:12.594Z,39.74
2022-08-23T17:33:41.884Z,40.16
2022-08-23T17:36:28.453Z,39.77
2022-08-23T17:38:57.475Z,39.59
2022-08-23T17:41:25.985Z,39.79
2022-08-23T17:43:54.512Z,40.14
2022-08-23T17:46:22.657Z,40.25
2022-08-23T17:48:50.468Z,40.27
2022-08-23T17:51:18.519Z,40.94
2022-08-23T17:53:47.905Z,40.54
2022-08-23T17:56:15.712Z,40.73
2022-08-23T17:58:43.837Z,40.44
2022-08-23T18:01:11.888Z,40.11
2022-08-23T18:03:39.986Z,40.14
2022-08-23T18:06:16.408Z,40.44
2022-08-23T18:08:47.551Z,40.04
2022-08-23T18:11:16.236Z,40.32
2022-08-23T18:13:44.362Z,40.35
2022-08-23T18:16:14.442Z,40.75
2022-08-23T18:18:42.649Z,40.26
2022-08-23T18:21:12.871Z,41.31
2022-08-23T18:23:41.035Z,42.05
2022-08-23T18:26:33.698Z,43.13
2022-08-23T18:29:01.211Z,44.25
2022-08-23T18:31:30.038Z,43.93
2022-08-23T18:34:00.521Z,41.85
2022-08-23T18:36:29.422Z,41.93
2022-08-23T18:38:58.044Z,42.23
2022-08-23T18:41:27.293Z,41.48
2022-08-23T18:43:55.256Z,42.94
2022-08-23T18:46:23.313Z,43.11
2022-08-23T18:48:53.461Z,44.44
2022-08-23T18:51:23.274Z,45.97
2022-08-23T18:53:51.275Z,46.25
2022-08-23T18:56:19.149Z,46.23
2022-08-23T18:58:48.962Z,46.36
2022-08-23T19:01:28.349Z,46.19
2022-08-23T19:03:58.649Z,47.13
2022-08-23T19:06:27.229Z,46.85
2022-08-23T19:08:55.368Z,47.63
2022-08-23T19:11:25.040Z,47.84
2022-08-23T19:13:54.337Z,47.83
2022-08-23T19:16:23.417Z,47.62
2022-08-23T19:18:52.098Z,47.55
2022-08-23T19:21:22.206Z,48.04
2022-08-23T19:23:51.837Z,48.06
2022-08-23T19:26:22.418Z,48.03
2022-08-23T19:28:50.284Z,48.85
2022-08-23T19:31:19.701Z,48.91
2022-08-23T19:33:47.616Z,48.55
2022-08-23T19:36:35.671Z,48.53
2022-08-23T19:39:03.985Z,48.92
2022-08-23T19:41:32.207Z,48.84
2022-08-23T19:44:00.002Z,48.47
2022-08-23T19:46:30.282Z,49.12
2022-08-23T19:48:58.766Z,49.08
2022-08-23T19:51:28.096Z,49.11
2022-08-23T19:54:11.040Z,49.24
2022-08-23T19:56:42.344Z,49.01
2022-08-23T19:59:13.977Z,49.40
2022-08-23T20:01:43.637Z,49.27
2022-08-23T20:04:11.945Z,49.08
2022-08-23T20:06:40.351Z,49.65
2022-08-23T20:09:08.875Z,49.50
2022-08-23T20:11:37.483Z,49.59
2022-08-23T20:14:07.139Z,49.74
2022-08-23T20:16:36.160Z,49.61
2022-08-23T20:19:08.051Z,50.09
2022-08-23T20:21:35.999Z,50.23
2022-08-23T20:24:04.458Z,50.47
2022-08-23T20:26:34.804Z,50.29
2022-08-23T20:29:03.410Z,50.45
2022-08-23T20:31:36.397Z,50.43
2022-08-23T20:34:07.181Z,50.67
2022-08-23T20:36:35.175Z,50.53
2022-08-23T20:39:03.202Z,50.66
2022-08-23T20:41:32.850Z,50.81
2022-08-23T20:44:02.448Z,50.93
2022-08-23T20:46:30.852Z,50.93
2022-08-23T20:48:59.090Z,51.22
2022-08-23T20:51:29.459Z,51.38
2022-08-23T20:53:58.406Z,51.07
2022-08-23T20:56:28.153Z,50.79
2022-08-23T20:58:56.388Z,50.91
2022-08-23T21:01:24.977Z,50.98
2022-08-23T21:03:53.224Z,51.26
2022-08-23T21:06:23.049Z,51.27
2022-08-23T21:08:56.322Z,51.03
2022-08-23T21:11:26.422Z,51.38
2022-08-23T21:13:54.650Z,51.07
2022-08-23T21:16:23.242Z,51.47
2022-08-23T21:18:52.383Z,51.48
2022-08-23T21:21:23.507Z,51.08
2022-08-23T21:23:51.724Z,51.46
2022-08-23T21:26:22.170Z,51.71
2022-08-23T21:28:50.225Z,51.67
2022-08-23T21:31:21.466Z,51.73
2022-08-23T21:33:50.557Z,51.66
2022-08-23T21:36:19.809Z,52.07
2022-08-23T21:38:47.824Z,51.98
2022-08-23T21:41:32.347Z,52.21
2022-08-23T21:44:00.359Z,52.19
2022-08-23T21:46:28.347Z,52.27
2022-08-23T21:48:57.021Z,52.36
2022-08-23T21:51:25.152Z,52.43
2022-08-23T21:53:53.501Z,52.57
2022-08-23T21:56:21.857Z,52.33
2022-08-23T21:58:51.086Z,52.55
2022-08-23T22:01:19.694Z,52.82
2022-08-23T22:03:47.721Z,52.89
2022-08-23T22:06:17.155Z,52.63
2022-08-23T22:08:45.977Z,53.00
2022-08-23T22:11:15.101Z,52.75
2022-08-23T22:13:44.608Z,52.90
2022-08-23T22:16:13.890Z,53.02
2022-08-23T22:18:42.929Z,53.17
2022-08-23T22:21:11.318Z,53.22
2022-08-23T22:23:43.352Z,53.53
2022-08-23T22:26:12.531Z,53.02
2022-08-23T22:28:44.853Z,53.13
2022-08-23T22:31:16.078Z,53.85
2022-08-23T22:33:45.298Z,53.21
2022-08-23T22:36:16.982Z,53.32
2022-08-23T22:38:45.730Z,53.38
2022-08-23T22:41:17.546Z,53.38
2022-08-23T22:43:45.913Z,53.46
2022-08-23T22:46:15.271Z,53.66
2022-08-23T22:48:43.419Z,53.97
2022-08-23T22:51:14.769Z,53.74
2022-08-23T22:53:45.499Z,54.29
2022-08-23T22:56:16.122Z,53.76
2022-08-23T22:58:45.324Z,53.79
2022-08-23T23:01:22.690Z,53.79
2022-08-23T23:03:50.704Z,54.00
2022-08-23T23:06:19.600Z,54.16
2022-08-23T23:08:47.766Z,54.42
2022-08-23T23:11:17.278Z,53.82
2022-08-23T23:13:45.550Z,53.92
2022-08-23T23:16:17.493Z,54.19
2022-08-23T23:19:08.389Z,54.55
2022-08-23T23:21:37.886Z,54.12
2022-08-23T23:24:06.560Z,54.22
2022-08-23T23:26:34.462Z,54.30
2022-08-23T23:29:02.311Z,54.33
2022-08-23T23:31:30.190Z,54.66
2022-08-23T23:33:59.937Z,54.79
2022-08-23T23:36:27.871Z,54.71
2022-08-23T23:38:56.087Z,54.93
2022-08-23T23:41:24.257Z,54.58
2022-08-23T23:43:52.274Z,54.43
2022-08-23T23:46:21.358Z,54.93
2022-08-23T23:48:51.498Z,54.83
2022-08-23T23:51:24.249Z,55.25
2022-08-23T23:53:53.352Z,55.38
2022-08-23T23:56:23.276Z,55.41
2022-08-23T23:58:53.761Z,54.83
